Terminal Aerodrome Forecast
Issued by NWS

Home | Current Version | Previous Version | Text Only | Print | Product List | Glossary Off
Versions: 1 2 3 4 5 6 7 8 9 10 11 12 13 14 15 16 17 18 19 20 21 22

000
FTUS43 KGRB 291728
TAFATW
TAF
KATW 291728Z 2918/3018 20010G16KT P6SM VCSH SCT035 BKN080
      TEMPO 3000/3004 3SM TSRA BKN025CB
     FM300400 VRB04KT 5SM -SHRA BR BKN015 OVC035
     FM300600 36007KT 3SM RA BR OVC007
     FM301000 02015G22KT 6SM -SHRA SCT009 OVC020
     FM301500 02014G22KT P6SM BKN035=

USA.gov is the U.S. government's official web portal to all federal, state and local government web resources and services.